Time;durP1;ratioP1;P1;durP2;ratioP2;P2;SDS_P1;SDS_P2;PMS_P1;PMS_P2;Temp;Humidity;BMP_temperature;BMP_pressure;BME280_temperature;BME280_humidity;BME280_pressure;Samples;Min_cycle;Max_cycle;Signal;HPM_P1;HPM_P2
2023/05/07 00:02:04;;;;;;;14.32;9.13;;;;;;;;;;4998709;28;20423;-61
2023/05/07 00:04:35;;;;;;;16.67;8.70;;;;;;;;;;5022231;28;20021;-65
2023/05/07 00:07:01;;;;;;;14.20;7.85;;;;;;;;;;5027878;28;20040;-64
2023/05/07 00:09:26;;;;;;;18.45;8.10;;;;;;;;;;5010672;28;20388;-64
2023/05/07 00:11:51;;;;;;;13.55;7.90;;;;;;;;;;5010666;28;20036;-63
2023/05/07 00:14:16;;;;;;;16.65;8.07;;;;;;;;;;5022091;28;20037;-61
2023/05/07 00:16:41;;;;;;;17.35;7.45;;;;;;;;;;5037051;23;20106;-70
2023/05/07 00:19:07;;;;;;;15.00;7.93;;;;;;;;;;5030960;28;20018;-70
2023/05/07 00:21:32;;;;;;;15.57;7.60;;;;;;;;;;5029661;28;20072;-71
2023/05/07 00:23:57;;;;;;;13.52;7.32;;;;;;;;;;5030474;28;20071;-72
2023/05/07 00:26:22;;;;;;;15.05;8.20;;;;;;;;;;5026139;28;20017;-72
2023/05/07 00:28:48;;;;;;;17.15;7.57;;;;;;;;;;5009856;28;20018;-69
2023/05/07 00:31:13;;;;;;;12.93;7.55;;;;;;;;;;5014799;28;20022;-71
2023/05/07 00:33:38;;;;;;;15.73;8.07;;;;;;;;;;5010306;28;20029;-72
2023/05/07 00:36:04;;;;;;;9.98;6.28;;;;;;;;;;5010440;28;20033;-69
2023/05/07 00:38:29;;;;;;;15.70;6.78;;;;;;;;;;5010639;28;20030;-69
2023/05/07 00:40:54;;;;;;;15.50;6.70;;;;;;;;;;5010559;28;20022;-68
2023/05/07 00:43:20;;;;;;;11.68;6.82;;;;;;;;;;5010910;28;20018;-71
2023/05/07 00:45:45;;;;;;;11.18;6.70;;;;;;;;;;5012731;28;20045;-72
2023/05/07 00:48:11;;;;;;;13.23;6.70;;;;;;;;;;5015877;28;20530;-71
2023/05/07 00:50:36;;;;;;;13.63;6.63;;;;;;;;;;5023074;28;20017;-73
2023/05/07 00:53:02;;;;;;;17.23;7.05;;;;;;;;;;4998919;28;20022;-70
2023/05/07 00:55:28;;;;;;;14.80;7.22;;;;;;;;;;5001511;28;20025;-66
2023/05/07 00:57:53;;;;;;;15.52;7.72;;;;;;;;;;5020757;28;20017;-69
2023/05/07 01:00:18;;;;;;;14.32;8.25;;;;;;;;;;5012977;28;20045;-74
2023/05/07 01:02:44;;;;;;;12.52;7.40;;;;;;;;;;5018008;28;20026;-73
2023/05/07 01:05:10;;;;;;;11.45;7.18;;;;;;;;;;5022738;28;20021;-72
2023/05/07 01:07:36;;;;;;;14.63;6.75;;;;;;;;;;5024699;28;20026;-71
2023/05/07 01:10:03;;;;;;;11.95;7.10;;;;;;;;;;5009880;28;20444;-70
2023/05/07 01:12:28;;;;;;;14.60;7.72;;;;;;;;;;5010098;28;20022;-69
2023/05/07 01:14:53;;;;;;;13.75;7.72;;;;;;;;;;5009755;28;20507;-69
2023/05/07 01:17:19;;;;;;;14.05;8.07;;;;;;;;;;5018823;28;20390;-70
2023/05/07 01:19:44;;;;;;;17.05;8.02;;;;;;;;;;5013967;28;20056;-72
2023/05/07 01:22:14;;;;;;;13.43;7.82;;;;;;;;;;5016282;28;20022;-71
2023/05/07 01:24:39;;;;;;;16.92;8.80;;;;;;;;;;5022281;28;20029;-72
2023/05/07 01:27:05;;;;;;;15.82;9.35;;;;;;;;;;5019095;28;20030;-72
2023/05/07 01:29:30;;;;;;;13.75;8.50;;;;;;;;;;5016330;28;20625;-72
2023/05/07 01:31:59;;;;;;;16.25;9.27;;;;;;;;;;5020328;28;20531;-72
2023/05/07 01:34:26;;;;;;;13.18;8.30;;;;;;;;;;5022407;28;20049;-71
2023/05/07 01:36:53;;;;;;;16.35;9.20;;;;;;;;;;5011821;28;20068;-72
2023/05/07 01:39:18;;;;;;;16.10;8.35;;;;;;;;;;5009495;28;20049;-73
2023/05/07 01:41:44;;;;;;;14.70;7.97;;;;;;;;;;5010032;28;20026;-73
2023/05/07 01:44:11;;;;;;;21.42;9.23;;;;;;;;;;5009558;28;20018;-72
2023/05/07 01:46:36;;;;;;;17.42;9.05;;;;;;;;;;5017235;28;20009;-70
2023/05/07 01:49:01;;;;;;;19.92;9.95;;;;;;;;;;5014072;28;20375;-73
2023/05/07 01:51:27;;;;;;;17.98;10.00;;;;;;;;;;5027550;28;20021;-70
2023/05/07 01:53:53;;;;;;;22.05;9.63;;;;;;;;;;5005256;28;20022;-71
2023/05/07 01:56:18;;;;;;;17.90;9.60;;;;;;;;;;5009035;28;20119;-70
2023/05/07 01:58:47;;;;;;;15.82;10.15;;;;;;;;;;5009305;28;20033;-70
2023/05/07 02:01:13;;;;;;;19.08;10.27;;;;;;;;;;5009513;28;20053;-73
2023/05/07 02:03:38;;;;;;;22.27;10.95;;;;;;;;;;5011997;28;20142;-72
2023/05/07 02:06:03;;;;;;;17.00;9.98;;;;;;;;;;5022227;28;20036;-71
2023/05/07 02:08:28;;;;;;;19.13;10.35;;;;;;;;;;5011808;28;20499;-71
2023/05/07 02:10:54;;;;;;;19.55;11.48;;;;;;;;;;5010239;28;20041;-70
2023/05/07 02:13:19;;;;;;;20.15;11.90;;;;;;;;;;5012897;28;20021;-72
2023/05/07 02:15:49;;;;;;;19.55;11.02;;;;;;;;;;5013093;28;20026;-72
2023/05/07 02:18:14;;;;;;;19.17;12.18;;;;;;;;;;5024782;28;20024;-70
2023/05/07 02:20:39;;;;;;;21.90;12.45;;;;;;;;;;5012711;28;20017;-70
2023/05/07 02:23:04;;;;;;;25.75;12.18;;;;;;;;;;5019440;28;20745;-74
2023/05/07 02:25:30;;;;;;;19.85;11.73;;;;;;;;;;5022399;28;20052;-72
2023/05/07 02:27:55;;;;;;;21.90;11.82;;;;;;;;;;5012865;28;20033;-71
2023/05/07 02:30:21;;;;;;;21.15;12.30;;;;;;;;;;5013357;28;20030;-72
2023/05/07 02:32:46;;;;;;;21.58;10.93;;;;;;;;;;5012776;28;20022;-68
2023/05/07 02:35:11;;;;;;;17.45;10.65;;;;;;;;;;5012600;28;20582;-71
2023/05/07 02:37:37;;;;;;;21.77;11.57;;;;;;;;;;5025216;28;20029;-72
2023/05/07 02:40:03;;;;;;;18.83;12.07;;;;;;;;;;5012684;28;20078;-70
2023/05/07 02:42:29;;;;;;;20.35;11.35;;;;;;;;;;5018691;28;20045;-73
2023/05/07 02:44:54;;;;;;;19.75;11.05;;;;;;;;;;5027048;28;20018;-72
2023/05/07 02:47:19;;;;;;;20.90;10.85;;;;;;;;;;5011963;28;20099;-71
2023/05/07 02:49:45;;;;;;;22.80;10.60;;;;;;;;;;5024072;28;20021;-71
2023/05/07 02:52:10;;;;;;;18.80;11.43;;;;;;;;;;5015270;28;20105;-72
2023/05/07 02:54:35;;;;;;;17.75;10.68;;;;;;;;;;5008580;28;20040;-70
2023/05/07 02:57:01;;;;;;;19.75;11.82;;;;;;;;;;5008550;28;20029;-69
2023/05/07 02:59:27;;;;;;;19.88;11.63;;;;;;;;;;5012233;28;20022;-70
2023/05/07 03:01:52;;;;;;;20.80;11.02;;;;;;;;;;5025201;28;20024;-73
2023/05/07 03:04:17;;;;;;;25.98;12.95;;;;;;;;;;5021008;28;20105;-72
2023/05/07 03:06:43;;;;;;;19.17;11.50;;;;;;;;;;5019702;28;20021;-73
2023/05/07 03:09:08;;;;;;;19.40;12.10;;;;;;;;;;5012352;28;20097;-75
2023/05/07 03:11:33;;;;;;;17.58;11.05;;;;;;;;;;5025854;28;20025;-73
2023/05/07 03:13:59;;;;;;;21.70;11.82;;;;;;;;;;5011975;28;20072;-71
2023/05/07 03:16:24;;;;;;;17.35;11.93;;;;;;;;;;5012575;28;20037;-69
2023/05/07 03:18:52;;;;;;;18.88;11.55;;;;;;;;;;5023115;28;20030;-71
2023/05/07 03:21:18;;;;;;;20.67;11.73;;;;;;;;;;5026637;28;20097;-69
2023/05/07 03:23:43;;;;;;;15.88;10.77;;;;;;;;;;5022469;28;20105;-71
2023/05/07 03:26:08;;;;;;;19.27;11.68;;;;;;;;;;5011787;28;20021;-72
2023/05/07 03:28:33;;;;;;;18.65;11.68;;;;;;;;;;5012043;28;20022;-71
2023/05/07 03:30:59;;;;;;;17.73;11.35;;;;;;;;;;5011924;28;20080;-71
2023/05/07 03:33:24;;;;;;;21.30;12.05;;;;;;;;;;5011699;28;20498;-69
2023/05/07 03:35:49;;;;;;;19.73;11.68;;;;;;;;;;5025104;28;20025;-72
2023/05/07 03:38:14;;;;;;;19.05;11.98;;;;;;;;;;5020602;28;20084;-73
2023/05/07 03:40:40;;;;;;;18.73;11.32;;;;;;;;;;5024977;28;20549;-70
2023/05/07 03:43:05;;;;;;;20.00;11.38;;;;;;;;;;5019794;28;20021;-71
2023/05/07 03:45:30;;;;;;;22.10;11.38;;;;;;;;;;5015240;28;20692;-70
2023/05/07 03:47:55;;;;;;;18.88;11.60;;;;;;;;;;5006212;28;20014;-69
2023/05/07 03:50:21;;;;;;;19.55;11.15;;;;;;;;;;5011089;28;20029;-69
2023/05/07 03:52:46;;;;;;;18.73;11.05;;;;;;;;;;5004818;28;20384;-75
2023/05/07 03:55:11;;;;;;;18.83;11.50;;;;;;;;;;5005739;28;20523;-71
2023/05/07 03:57:36;;;;;;;22.83;11.45;;;;;;;;;;5011310;28;20034;-71
2023/05/07 04:00:03;;;;;;;20.77;12.10;;;;;;;;;;5024118;28;20400;-70
2023/05/07 04:02:28;;;;;;;17.27;10.25;;;;;;;;;;5018368;28;20013;-72
2023/05/07 04:04:54;;;;;;;20.10;11.27;;;;;;;;;;5017480;28;20514;-71
2023/05/07 04:07:19;;;;;;;19.85;11.80;;;;;;;;;;5022785;28;20026;-69
2023/05/07 04:09:44;;;;;;;19.90;10.98;;;;;;;;;;5010705;28;20116;-71
2023/05/07 04:12:10;;;;;;;17.95;11.05;;;;;;;;;;5009706;28;20030;-71
2023/05/07 04:14:35;;;;;;;23.30;12.63;;;;;;;;;;5010531;28;20109;-70
2023/05/07 04:17:00;;;;;;;18.70;11.35;;;;;;;;;;5017038;28;20119;-70
2023/05/07 04:19:25;;;;;;;19.55;11.27;;;;;;;;;;5017772;28;20442;-71
2023/05/07 04:21:51;;;;;;;21.70;12.25;;;;;;;;;;5010428;28;20022;-70
2023/05/07 04:24:16;;;;;;;17.33;10.90;;;;;;;;;;5022686;28;20042;-71
2023/05/07 04:26:41;;;;;;;19.60;11.70;;;;;;;;;;5010436;28;20094;-70
2023/05/07 04:29:07;;;;;;;21.88;11.60;;;;;;;;;;5009800;28;20030;-69
2023/05/07 04:31:32;;;;;;;22.25;11.38;;;;;;;;;;5009299;28;20044;-73
2023/05/07 04:33:57;;;;;;;19.58;12.00;;;;;;;;;;5009598;28;20014;-70
2023/05/07 04:36:26;;;;;;;18.67;10.98;;;;;;;;;;5010213;28;20017;-69
2023/05/07 04:38:51;;;;;;;26.03;12.80;;;;;;;;;;5010597;28;20018;-68
2023/05/07 04:41:16;;;;;;;19.38;10.30;;;;;;;;;;5008573;28;20542;-71
2023/05/07 04:43:42;;;;;;;21.17;11.30;;;;;;;;;;5008832;28;20534;-72
2023/05/07 04:46:08;;;;;;;18.50;10.75;;;;;;;;;;5009160;28;20021;-67
2023/05/07 04:48:33;;;;;;;20.95;11.50;;;;;;;;;;5014600;28;20026;-72
2023/05/07 04:50:58;;;;;;;18.67;10.93;;;;;;;;;;5010057;28;20496;-69
2023/05/07 04:53:23;;;;;;;18.23;11.07;;;;;;;;;;5002082;28;20053;-72
2023/05/07 04:55:49;;;;;;;23.15;11.82;;;;;;;;;;4996874;28;20026;-70
2023/05/07 04:58:14;;;;;;;21.35;11.85;;;;;;;;;;5025118;28;20021;-70
2023/05/07 05:00:42;;;;;;;23.33;11.35;;;;;;;;;;5023414;28;20053;-73
2023/05/07 05:03:07;;;;;;;18.65;10.95;;;;;;;;;;5022128;28;20088;-73
2023/05/07 05:05:32;;;;;;;18.98;10.68;;;;;;;;;;5008820;28;20029;-71
2023/05/07 05:07:58;;;;;;;22.00;11.35;;;;;;;;;;5009968;28;20101;-71
2023/05/07 05:10:23;;;;;;;18.58;10.02;;;;;;;;;;5019851;28;20105;-70
2023/05/07 05:12:48;;;;;;;19.35;10.98;;;;;;;;;;5003760;28;20853;-71
2023/05/07 05:15:13;;;;;;;21.27;11.38;;;;;;;;;;5008957;28;20025;-71
2023/05/07 05:17:39;;;;;;;19.25;10.18;;;;;;;;;;5017006;28;20434;-71
2023/05/07 05:20:05;;;;;;;16.52;9.32;;;;;;;;;;5010231;28;20361;-70
2023/05/07 05:22:31;;;;;;;19.00;10.15;;;;;;;;;;5008806;28;20113;-70
2023/05/07 05:24:56;;;;;;;18.33;9.77;;;;;;;;;;5021984;28;20121;-73
2023/05/07 05:27:21;;;;;;;21.67;9.95;;;;;;;;;;5009047;28;20502;-71
2023/05/07 05:29:47;;;;;;;18.48;9.20;;;;;;;;;;5011328;28;20029;-70
2023/05/07 05:32:12;;;;;;;13.77;8.02;;;;;;;;;;5013902;28;20022;-70
2023/05/07 05:34:37;;;;;;;14.02;8.52;;;;;;;;;;5016477;28;20021;-70
2023/05/07 05:37:02;;;;;;;16.83;8.52;;;;;;;;;;5012521;28;20045;-70
2023/05/07 05:39:27;;;;;;;19.33;8.43;;;;;;;;;;5008458;28;20113;-71
2023/05/07 05:41:53;;;;;;;14.88;7.97;;;;;;;;;;5009671;28;20022;-71
2023/05/07 05:44:18;;;;;;;15.25;8.00;;;;;;;;;;5010018;28;20104;-68
2023/05/07 05:46:43;;;;;;;14.45;8.18;;;;;;;;;;5015073;28;20045;-70
2023/05/07 05:49:09;;;;;;;14.98;7.97;;;;;;;;;;5010309;28;20061;-68
2023/05/07 05:51:34;;;;;;;16.95;8.23;;;;;;;;;;5013357;28;20479;-69
2023/05/07 05:53:59;;;;;;;13.05;7.80;;;;;;;;;;5013273;28;20034;-70
2023/05/07 05:56:25;;;;;;;18.60;8.50;;;;;;;;;;5012483;28;20148;-70
2023/05/07 05:58:50;;;;;;;12.85;8.07;;;;;;;;;;5012647;28;20017;-70
2023/05/07 06:01:17;;;;;;;16.88;9.23;;;;;;;;;;5014976;28;20025;-71
2023/05/07 06:03:42;;;;;;;17.08;7.15;;;;;;;;;;5023074;28;20075;-71
2023/05/07 06:06:07;;;;;;;16.38;10.02;;;;;;;;;;5019885;28;20022;-66
2023/05/07 06:08:33;;;;;;;13.05;7.70;;;;;;;;;;5022824;28;20022;-70
2023/05/07 06:10:58;;;;;;;14.15;7.53;;;;;;;;;;5016444;28;20048;-66
2023/05/07 06:13:23;;;;;;;16.15;7.63;;;;;;;;;;5023008;28;20029;-68
2023/05/07 06:15:49;;;;;;;15.25;7.80;;;;;;;;;;5040397;23;20030;-63
2023/05/07 06:18:14;;;;;;;15.57;7.47;;;;;;;;;;5031505;28;20525;-60
2023/05/07 06:20:39;;;;;;;15.70;7.47;;;;;;;;;;5032794;28;20037;-62
2023/05/07 06:23:04;;;;;;;17.77;8.02;;;;;;;;;;5032957;28;20100;-61
2023/05/07 06:25:30;;;;;;;16.10;7.80;;;;;;;;;;5032680;28;20613;-64
2023/05/07 06:27:55;;;;;;;12.88;8.13;;;;;;;;;;5032734;28;20589;-65
2023/05/07 06:30:20;;;;;;;15.45;8.07;;;;;;;;;;5031963;28;20029;-63
2023/05/07 06:32:45;;;;;;;16.10;8.82;;;;;;;;;;5032674;28;20026;-64
2023/05/07 06:35:11;;;;;;;15.45;9.20;;;;;;;;;;5032632;28;20021;-61
2023/05/07 06:37:38;;;;;;;16.83;8.13;;;;;;;;;;5031105;28;20045;-63
2023/05/07 06:40:04;;;;;;;13.98;7.68;;;;;;;;;;5023031;28;20467;-62
2023/05/07 06:42:29;;;;;;;14.93;8.65;;;;;;;;;;5032381;28;20021;-64
2023/05/07 06:44:54;;;;;;;17.98;9.43;;;;;;;;;;5032374;28;20028;-62
2023/05/07 06:47:20;;;;;;;14.55;7.68;;;;;;;;;;5024421;28;20018;-63
2023/05/07 06:49:45;;;;;;;18.13;8.73;;;;;;;;;;5031899;28;20045;-62
2023/05/07 06:52:10;;;;;;;16.25;7.97;;;;;;;;;;5032501;28;20017;-61
2023/05/07 06:54:35;;;;;;;13.57;7.60;;;;;;;;;;5031994;28;20497;-64
2023/05/07 06:57:01;;;;;;;14.15;7.75;;;;;;;;;;5031597;28;20029;-62
2023/05/07 06:59:26;;;;;;;15.57;8.43;;;;;;;;;;5031131;28;20021;-63
2023/05/07 07:01:51;;;;;;;16.30;8.20;;;;;;;;;;5031580;28;20041;-64
2023/05/07 07:04:16;;;;;;;14.15;8.13;;;;;;;;;;5031037;28;20031;-64
2023/05/07 07:06:42;;;;;;;15.10;8.65;;;;;;;;;;5031623;28;20017;-62
2023/05/07 07:09:07;;;;;;;15.40;7.97;;;;;;;;;;5031656;28;20024;-64
2023/05/07 07:11:32;;;;;;;15.20;7.72;;;;;;;;;;5032144;28;20021;-63
2023/05/07 07:13:58;;;;;;;12.70;7.47;;;;;;;;;;5032645;28;20033;-65
2023/05/07 07:16:23;;;;;;;14.25;8.18;;;;;;;;;;5031040;28;20783;-64
2023/05/07 07:18:49;;;;;;;14.23;8.10;;;;;;;;;;5032303;28;20025;-63
2023/05/07 07:21:14;;;;;;;13.65;7.20;;;;;;;;;;5031581;28;20585;-64
2023/05/07 07:23:40;;;;;;;13.57;8.02;;;;;;;;;;5031601;28;20018;-64
2023/05/07 07:26:06;;;;;;;13.38;7.35;;;;;;;;;;5031414;28;20169;-65
2023/05/07 07:28:31;;;;;;;16.35;8.13;;;;;;;;;;5031581;28;20030;-62
2023/05/07 07:30:57;;;;;;;13.43;7.53;;;;;;;;;;5030921;28;20025;-64
2023/05/07 07:33:22;;;;;;;14.00;5.93;;;;;;;;;;5031552;28;20021;-65
2023/05/07 07:35:47;;;;;;;13.00;6.93;;;;;;;;;;5031672;28;20033;-65
2023/05/07 07:38:12;;;;;;;13.23;6.65;;;;;;;;;;5022032;28;20030;-66
2023/05/07 07:40:38;;;;;;;9.90;4.95;;;;;;;;;;5022698;28;20040;-65
2023/05/07 07:43:04;;;;;;;14.13;6.85;;;;;;;;;;5031804;28;20017;-65
2023/05/07 07:45:30;;;;;;;13.48;6.60;;;;;;;;;;5030928;28;20022;-64
2023/05/07 07:47:55;;;;;;;10.07;5.57;;;;;;;;;;5022504;28;20035;-65
2023/05/07 07:50:20;;;;;;;14.18;6.10;;;;;;;;;;5030836;28;20555;-62
2023/05/07 07:52:45;;;;;;;10.10;5.45;;;;;;;;;;5030823;28;20737;-64
2023/05/07 07:55:11;;;;;;;9.98;5.95;;;;;;;;;;5030673;28;20053;-64
2023/05/07 07:57:37;;;;;;;9.35;5.75;;;;;;;;;;5030702;28;20017;-64
2023/05/07 08:00:02;;;;;;;10.88;5.53;;;;;;;;;;5030867;28;20105;-64
2023/05/07 08:02:28;;;;;;;8.88;5.22;;;;;;;;;;5030364;28;20025;-62
2023/05/07 08:04:53;;;;;;;8.85;5.43;;;;;;;;;;5030610;28;20037;-65
2023/05/07 08:07:20;;;;;;;9.38;6.00;;;;;;;;;;5030555;28;20466;-64
2023/05/07 08:09:45;;;;;;;10.80;5.50;;;;;;;;;;5031004;28;20379;-65
2023/05/07 08:12:11;;;;;;;10.10;6.25;;;;;;;;;;5032253;28;20467;-64
2023/05/07 08:14:36;;;;;;;9.23;5.57;;;;;;;;;;5028796;28;20026;-64
2023/05/07 08:17:02;;;;;;;8.95;5.57;;;;;;;;;;5029772;28;20025;-64
2023/05/07 08:19:27;;;;;;;11.45;5.65;;;;;;;;;;5030767;28;20049;-64
2023/05/07 08:21:52;;;;;;;9.90;5.70;;;;;;;;;;5030394;28;20068;-66
2023/05/07 08:24:17;;;;;;;8.73;5.10;;;;;;;;;;5029829;28;20024;-65
2023/05/07 08:26:43;;;;;;;9.75;5.70;;;;;;;;;;5029836;28;20029;-63
2023/05/07 08:29:08;;;;;;;8.20;4.90;;;;;;;;;;5029940;28;20014;-62
2023/05/07 08:31:34;;;;;;;11.23;5.30;;;;;;;;;;5029342;28;20025;-64
2023/05/07 08:33:59;;;;;;;8.05;4.97;;;;;;;;;;5029617;28;20617;-65
2023/05/07 08:36:25;;;;;;;8.55;5.13;;;;;;;;;;5030186;28;20021;-65
2023/05/07 08:38:50;;;;;;;11.20;5.07;;;;;;;;;;5017726;28;20018;-65
2023/05/07 08:41:16;;;;;;;9.35;4.53;;;;;;;;;;5024377;28;20071;-62
2023/05/07 08:43:41;;;;;;;7.47;4.10;;;;;;;;;;5030254;28;20075;-64
2023/05/07 08:46:08;;;;;;;8.98;4.28;;;;;;;;;;5028053;28;20028;-65
2023/05/07 08:48:34;;;;;;;7.70;4.32;;;;;;;;;;5028838;28;20028;-63
2023/05/07 08:50:59;;;;;;;8.02;3.92;;;;;;;;;;5028999;28;20018;-64
2023/05/07 08:53:24;;;;;;;7.28;4.18;;;;;;;;;;5030521;28;20541;-69
2023/05/07 08:55:50;;;;;;;7.65;4.32;;;;;;;;;;5029333;28;20013;-64
2023/05/07 08:58:15;;;;;;;10.35;5.20;;;;;;;;;;5028591;28;20017;-63
2023/05/07 09:00:41;;;;;;;8.32;4.60;;;;;;;;;;5025418;28;20057;-65
2023/05/07 09:03:06;;;;;;;8.38;4.38;;;;;;;;;;5023527;28;20032;-65
2023/05/07 09:05:31;;;;;;;8.10;4.40;;;;;;;;;;5027165;28;20100;-64
2023/05/07 09:08:01;;;;;;;7.85;4.10;;;;;;;;;;5021586;28;20034;-64
2023/05/07 09:10:27;;;;;;;8.80;4.75;;;;;;;;;;5027062;28;20180;-63
2023/05/07 09:12:52;;;;;;;9.27;5.55;;;;;;;;;;5007370;28;20041;-64
2023/05/07 09:15:17;;;;;;;7.55;4.70;;;;;;;;;;5007672;28;20041;-62
2023/05/07 09:17:43;;;;;;;8.63;4.45;;;;;;;;;;5008923;28;20050;-61
2023/05/07 09:20:08;;;;;;;6.82;4.20;;;;;;;;;;5006663;28;20145;-65
2023/05/07 09:22:35;;;;;;;7.28;4.53;;;;;;;;;;5004413;28;20030;-64
2023/05/07 09:25:01;;;;;;;8.18;4.45;;;;;;;;;;5007427;28;20332;-63
2023/05/07 09:27:26;;;;;;;8.70;4.40;;;;;;;;;;5005579;28;20479;-65
2023/05/07 09:29:51;;;;;;;9.68;4.82;;;;;;;;;;5004399;28;20576;-64
2023/05/07 09:32:17;;;;;;;7.80;4.35;;;;;;;;;;5004258;28;20045;-68
2023/05/07 09:34:42;;;;;;;8.35;4.88;;;;;;;;;;5016025;28;20049;-60
2023/05/07 09:37:07;;;;;;;7.90;4.60;;;;;;;;;;5023884;28;20113;-66
2023/05/07 09:39:42;;;;;;;8.60;4.68;;;;;;;;;;5020144;28;20030;-64
2023/05/07 09:42:08;;;;;;;8.30;4.50;;;;;;;;;;5015745;28;20014;-62
2023/05/07 09:44:34;;;;;;;9.65;4.90;;;;;;;;;;5019636;28;20024;-65
2023/05/07 09:46:59;;;;;;;9.00;4.88;;;;;;;;;;5018004;28;20044;-64
2023/05/07 09:49:29;;;;;;;9.07;5.10;;;;;;;;;;5015966;28;20034;-63
2023/05/07 09:51:55;;;;;;;8.07;4.97;;;;;;;;;;5024545;28;20029;-64
2023/05/07 09:54:20;;;;;;;7.20;4.40;;;;;;;;;;5024499;28;20028;-63
2023/05/07 09:56:46;;;;;;;6.68;4.63;;;;;;;;;;5022315;28;20518;-63
2023/05/07 09:59:12;;;;;;;8.32;4.72;;;;;;;;;;5018184;28;20029;-61
2023/05/07 10:01:38;;;;;;;6.78;4.38;;;;;;;;;;5016956;28;20157;-60
2023/05/07 10:04:04;;;;;;;8.48;4.93;;;;;;;;;;5025738;28;20093;-65
2023/05/07 10:06:30;;;;;;;6.88;4.50;;;;;;;;;;5017184;28;20041;-65
2023/05/07 10:08:56;;;;;;;7.32;4.68;;;;;;;;;;5012273;28;20127;-60
2023/05/07 10:11:22;;;;;;;8.30;4.57;;;;;;;;;;5021357;28;20021;-64
2023/05/07 10:13:47;;;;;;;7.28;4.10;;;;;;;;;;5020169;28;20052;-64
2023/05/07 10:16:13;;;;;;;9.10;4.60;;;;;;;;;;5017368;28;20513;-65
2023/05/07 10:18:40;;;;;;;11.23;5.00;;;;;;;;;;5026916;28;20112;-65
2023/05/07 10:21:15;;;;;;;6.93;4.25;;;;;;;;;;5023332;28;20030;-64
2023/05/07 10:23:41;;;;;;;7.68;4.00;;;;;;;;;;5025521;28;20505;-64
2023/05/07 10:26:08;;;;;;;10.20;4.82;;;;;;;;;;5020967;28;20025;-67
2023/05/07 10:28:36;;;;;;;7.53;4.00;;;;;;;;;;5020607;28;20037;-69
2023/05/07 10:31:02;;;;;;;7.88;4.07;;;;;;;;;;5028007;28;20509;-64
2023/05/07 10:33:31;;;;;;;8.07;4.32;;;;;;;;;;5024976;28;20103;-69
2023/05/07 10:35:56;;;;;;;;;;;;;;;;;;5029612;28;20610;-66
2023/05/07 10:38:21;;;;;;;7.50;3.90;;;;;;;;;;5026343;28;20016;-66
2023/05/07 10:40:46;;;;;;;6.43;3.88;;;;;;;;;;5026221;28;20356;-66
2023/05/07 10:43:12;;;;;;;7.32;3.72;;;;;;;;;;5021852;28;20030;-66
2023/05/07 10:45:38;;;;;;;8.05;4.05;;;;;;;;;;5027296;28;20018;-65
2023/05/07 10:48:06;;;;;;;6.07;3.47;;;;;;;;;;5030297;28;20041;-65
2023/05/07 10:50:31;;;;;;;7.27;4.07;;;;;;;;;;5030852;28;20083;-64
2023/05/07 10:53:20;;;;;;;7.10;3.38;;;;;;;;;;5029902;28;20029;-62
2023/05/07 10:55:46;;;;;;;6.68;3.92;;;;;;;;;;5030915;28;20045;-64
2023/05/07 10:58:33;;;;;;;6.32;3.53;;;;;;;;;;5026647;28;20017;-65
2023/05/07 11:01:01;;;;;;;5.90;3.67;;;;;;;;;;5024779;28;20049;-66
2023/05/07 11:03:27;;;;;;;7.45;3.47;;;;;;;;;;5029444;28;20022;-65
2023/05/07 11:06:11;;;;;;;7.38;3.65;;;;;;;;;;5030820;28;20029;-67
2023/05/07 11:08:55;;;;;;;7.50;4.50;;;;;;;;;;5026358;28;20424;-64
2023/05/07 11:11:40;;;;;;;9.93;4.93;;;;;;;;;;5023257;28;20021;-60
2023/05/07 11:14:05;;;;;;;12.32;5.28;;;;;;;;;;5014892;28;20452;-61
2023/05/07 11:16:32;;;;;;;7.50;4.65;;;;;;;;;;5025346;28;20057;-63
2023/05/07 11:18:57;;;;;;;10.35;5.25;;;;;;;;;;5024469;28;20028;-66
2023/05/07 11:21:36;;;;;;;11.43;4.55;;;;;;;;;;5030509;28;20022;-62
2023/05/07 11:24:02;;;;;;;10.55;5.30;;;;;;;;;;5028608;28;20100;-64
2023/05/07 11:26:28;;;;;;;7.45;4.20;;;;;;;;;;5030049;28;20076;-65
2023/05/07 11:28:54;;;;;;;8.93;4.97;;;;;;;;;;5030953;28;20018;-63
2023/05/07 11:31:23;;;;;;;9.80;4.30;;;;;;;;;;5030111;28;20522;-63
2023/05/07 11:33:49;;;;;;;9.95;4.72;;;;;;;;;;5028278;28;20060;-64
2023/05/07 11:36:14;;;;;;;7.45;3.90;;;;;;;;;;5029475;28;20045;-62
2023/05/07 11:38:40;;;;;;;7.78;3.95;;;;;;;;;;5023580;28;20037;-64
2023/05/07 11:41:05;;;;;;;9.23;4.18;;;;;;;;;;5024027;28;20028;-64
2023/05/07 11:43:32;;;;;;;9.75;4.43;;;;;;;;;;5030546;28;20021;-64
2023/05/07 11:46:10;;;;;;;8.93;4.35;;;;;;;;;;5021305;28;20018;-63
2023/05/07 11:48:35;;;;;;;8.25;4.65;;;;;;;;;;5026758;28;20018;-66
2023/05/07 11:51:01;;;;;;;7.15;4.00;;;;;;;;;;5031130;28;20044;-66
2023/05/07 11:53:28;;;;;;;7.60;3.70;;;;;;;;;;5030728;28;20028;-63
2023/05/07 11:55:54;;;;;;;7.10;3.90;;;;;;;;;;5021621;28;20029;-63
2023/05/07 11:58:21;;;;;;;6.90;3.80;;;;;;;;;;5029718;28;20036;-63
2023/05/07 12:00:49;;;;;;;7.28;3.88;;;;;;;;;;5027355;28;20064;-62
2023/05/07 12:03:15;;;;;;;7.03;4.15;;;;;;;;;;5028433;28;20072;-61
2023/05/07 12:05:41;;;;;;;8.70;4.53;;;;;;;;;;5024945;28;20022;-63
2023/05/07 12:08:06;;;;;;;9.13;4.28;;;;;;;;;;5017054;28;20018;-63
2023/05/07 12:10:32;;;;;;;8.85;5.18;;;;;;;;;;5028623;28;20030;-63
2023/05/07 12:12:57;;;;;;;8.75;4.45;;;;;;;;;;5021887;28;20029;-64
2023/05/07 12:15:22;;;;;;;9.27;4.43;;;;;;;;;;5019374;28;20029;-64
2023/05/07 12:17:48;;;;;;;9.52;4.68;;;;;;;;;;5038889;23;20310;-72
2023/05/07 12:20:14;;;;;;;9.95;4.80;;;;;;;;;;5028246;28;20091;-70
2023/05/07 12:22:40;;;;;;;8.35;4.63;;;;;;;;;;5030679;28;20025;-69
2023/05/07 12:25:06;;;;;;;11.38;5.07;;;;;;;;;;5024584;28;20029;-71
2023/05/07 12:27:31;;;;;;;8.23;4.88;;;;;;;;;;5024821;28;20021;-68
2023/05/07 12:29:57;;;;;;;10.43;4.95;;;;;;;;;;5017154;28;20507;-69
2023/05/07 12:32:22;;;;;;;8.50;4.80;;;;;;;;;;5010970;28;20064;-69
2023/05/07 12:34:51;;;;;;;14.05;4.90;;;;;;;;;;5026968;28;20520;-66
2023/05/07 12:37:16;;;;;;;11.23;4.15;;;;;;;;;;5028550;28;20021;-68
2023/05/07 12:39:48;;;;;;;6.95;3.50;;;;;;;;;;5028482;28;20075;-68
2023/05/07 12:42:19;;;;;;;11.85;3.88;;;;;;;;;;5019241;28;20085;-68
2023/05/07 12:44:45;;;;;;;9.73;3.50;;;;;;;;;;5023659;28;20021;-68
2023/05/07 12:47:11;;;;;;;7.63;3.78;;;;;;;;;;5016692;28;20018;-68
2023/05/07 12:49:39;;;;;;;9.20;4.53;;;;;;;;;;5024476;28;20014;-68
2023/05/07 12:52:05;;;;;;;8.73;4.75;;;;;;;;;;5026368;28;20030;-68
2023/05/07 12:54:31;;;;;;;8.30;4.63;;;;;;;;;;5027210;28;20024;-68
2023/05/07 12:57:02;;;;;;;12.27;4.35;;;;;;;;;;5020883;28;20483;-68
2023/05/07 12:59:34;;;;;;;8.80;4.35;;;;;;;;;;5027702;28;20029;-69
2023/05/07 13:01:59;;;;;;;8.23;4.50;;;;;;;;;;5011784;28;20076;-68
2023/05/07 13:04:24;;;;;;;9.18;4.53;;;;;;;;;;5020762;28;20116;-68
2023/05/07 13:06:50;;;;;;;16.30;4.18;;;;;;;;;;5017200;28;20047;-70
2023/05/07 13:09:15;;;;;;;11.48;3.97;;;;;;;;;;5019583;28;20103;-69
2023/05/07 13:11:40;;;;;;;7.55;4.25;;;;;;;;;;5023112;28;20113;-66
2023/05/07 13:14:09;;;;;;;9.20;3.60;;;;;;;;;;5013272;28;20021;-68
2023/05/07 13:16:34;;;;;;;6.90;3.88;;;;;;;;;;5013449;28;20041;-68
2023/05/07 13:18:59;;;;;;;7.70;4.07;;;;;;;;;;5028231;28;20088;-70
2023/05/07 13:21:25;;;;;;;8.57;4.05;;;;;;;;;;5028642;28;20152;-70
2023/05/07 13:23:50;;;;;;;8.10;3.58;;;;;;;;;;5017986;28;20359;-68
2023/05/07 13:26:16;;;;;;;9.40;3.55;;;;;;;;;;5016485;28;20106;-69
2023/05/07 13:28:41;;;;;;;7.60;3.85;;;;;;;;;;5029127;28;20057;-70
2023/05/07 13:31:06;;;;;;;7.40;3.97;;;;;;;;;;5028805;28;20017;-68
2023/05/07 13:33:32;;;;;;;6.47;3.65;;;;;;;;;;5027406;28;20420;-70
2023/05/07 13:35:57;;;;;;;6.90;3.67;;;;;;;;;;5026819;28;20025;-69
2023/05/07 13:38:22;;;;;;;6.55;3.60;;;;;;;;;;5024344;28;20328;-69
2023/05/07 13:40:47;;;;;;;6.70;3.47;;;;;;;;;;5028199;28;20022;-70
2023/05/07 13:43:13;;;;;;;7.07;4.05;;;;;;;;;;5028552;28;20101;-71
2023/05/07 13:45:38;;;;;;;5.70;3.25;;;;;;;;;;5028329;28;20017;-69
2023/05/07 13:48:03;;;;;;;9.50;4.07;;;;;;;;;;5019619;28;20025;-69
2023/05/07 13:50:29;;;;;;;7.60;3.80;;;;;;;;;;5028627;28;20026;-67
2023/05/07 13:52:55;;;;;;;5.35;3.13;;;;;;;;;;5028344;28;20026;-69
2023/05/07 13:55:21;;;;;;;10.35;3.65;;;;;;;;;;5028229;28;20025;-69
2023/05/07 13:57:46;;;;;;;8.38;3.17;;;;;;;;;;5028163;28;20033;-68
2023/05/07 14:00:12;;;;;;;6.40;3.17;;;;;;;;;;5028760;28;20034;-67
2023/05/07 14:02:37;;;;;;;6.07;3.33;;;;;;;;;;5027947;28;20041;-69
2023/05/07 14:05:03;;;;;;;6.82;3.30;;;;;;;;;;5019828;28;20029;-68
2023/05/07 14:07:28;;;;;;;6.60;3.00;;;;;;;;;;5022310;28;20466;-67
2023/05/07 14:09:54;;;;;;;6.82;3.63;;;;;;;;;;5032143;28;20356;-69
2023/05/07 14:12:19;;;;;;;6.60;3.35;;;;;;;;;;5032375;28;20390;-69
2023/05/07 14:14:45;;;;;;;6.63;2.70;;;;;;;;;;5031784;28;20032;-67
2023/05/07 14:17:10;;;;;;;6.85;2.78;;;;;;;;;;5031416;28;20040;-69
2023/05/07 14:19:35;;;;;;;4.32;2.47;;;;;;;;;;5031388;28;20640;-69
2023/05/07 14:22:00;;;;;;;5.68;2.65;;;;;;;;;;5020212;28;20061;-69
2023/05/07 14:24:26;;;;;;;5.07;2.25;;;;;;;;;;5025167;28;20104;-68
2023/05/07 14:26:51;;;;;;;6.45;3.15;;;;;;;;;;5023269;28;20017;-68